• Join FlightAware (Why Join?)
  • Login
  • US Flag 
05:45PM EDT


 

Airport Tracker/Info


-or-


 

Live Flight TrackerFlight Track Log ✈ EJA583 ✈ 05-Nov-2013 ✈ KMEM - KMKC

Flight Track Log - Related Links

Times and Time Zones

All times are in EST time to prevent confusion due to time zone crossing. See the EJA583 flight status page for this flight to view local times or setup timezone preferences in your user account.

Time Position Orientation Groundspeed Altitude Reporting Facility
EST Latitude Longitude Course Direction KTS MPH feet Rate Location/Type
11:43AM 35.0333 -89.9667 180° South 164 189 1,000  Level KMEM
11:44AM 35.0000 -89.9667 180° South 175 201 3,700 3,840 Climbing KMEM
11:45AM 34.9500 -90.0000 209° Southwest 197 227 7,600 3,720 Climbing KMEM
11:46AM 34.9667 -90.0667 287° West 249 287 11,200 3,180 Climbing KMEM
11:47AM 35.0333 -90.0667 360° North 304 350 14,000 1,860 Climbing KMEM
11:49AM 35.1842 -90.0597 North 360 414 16,000 1,380 Climbing Memphis Center
11:50AM 35.2969 -90.0569 North 403 464 17,500 2,160 Climbing Memphis Center
11:51AM 35.4033 -90.0539 North 391 450 20,400 2,520 Climbing Memphis Center
11:52AM 35.4931 -90.0944 340° North 344 396 22,600 1,320 Climbing Memphis Center
11:53AM 35.5517 -90.1861 308° West 323 372 23,100 1,200 Climbing Memphis Center
11:54AM 35.6103 -90.2881 305° West 341 392 25,000 1,740 Climbing Memphis Center
11:55AM 35.6622 -90.3725 307° West 353 406 26,600 1,560 Climbing Memphis Center
11:56AM 35.7186 -90.4747 304° West 342 394 28,200 1,380 Climbing Memphis Center
11:57AM 35.7747 -90.5744 305° West 348 400 29,400 1,080 Climbing Memphis Center
11:58AM 35.8267 -90.6592 307° West 353 406 30,400 1,140 Climbing Memphis Center
11:59AM 35.8828 -90.7567 305° West 353 406 31,700 1,200 Climbing Memphis Center
12:00PM 35.9428 -90.8544 307° West 353 406 32,900 1,140 Climbing Memphis Center
12:01PM 35.9967 -90.9497 305° West 353 406 34,000 540 Climbing Memphis Center
12:02PM 36.0544 -91.0503 305° West 353 406 34,000  Level Memphis Center
12:03PM 36.1186 -91.1561 307° West 363 418 34,000  Level Memphis Center
12:04PM 36.1803 -91.2622 306° West 373 429 34,000  Level Memphis Center
12:05PM 36.2422 -91.3708 305° West 383 441 34,000  Level Memphis Center
12:06PM 36.3036 -91.4772 306° West 383 441 34,000  Level Memphis Center
12:07PM 36.3653 -91.5836 306° West 378 435 34,000  Level Memphis Center
12:08PM 36.4289 -91.6906 306° West 378 435 34,000  Level Memphis Center
12:09PM 36.5089 -91.7975 313° West 384 442 34,000  Level Memphis Center
12:11PM 36.6497 -91.9664 316° Northwest 397 457 34,000  Level Kansas City Center
12:12PM 36.7300 -92.0597 317° Northwest 394 453 34,000  Level Kansas City Center
12:13PM 36.8258 -92.1750 316° Northwest 396 456 34,000  Level Kansas City Center
12:14PM 36.9058 -92.2700 316° Northwest 395 455 34,000  Level Kansas City Center
12:15PM 36.9842 -92.3642 316° Northwest 392 451 34,000  Level Kansas City Center
12:16PM 37.0628 -92.4581 316° Northwest 389 448 34,000  Level Kansas City Center
12:17PM 37.1567 -92.5725 316° Northwest 389 448 34,000  Level Kansas City Center
12:18PM 37.2342 -92.6681 316° Northwest 388 447 34,000  Level Kansas City Center
12:19PM 37.3114 -92.7603 316° Northwest 386 444 34,000  Level Kansas City Center
12:20PM 37.3878 -92.8544 316° Northwest 384 442 34,000  Level Kansas City Center
12:21PM 37.4647 -92.9481 316° Northwest 382 440 34,000  Level Kansas City Center
12:22PM 37.5403 -93.0411 316° Northwest 379 436 34,000  Level Kansas City Center
12:23PM 37.6317 -93.1519 316° Northwest 378 435 34,000  Level Kansas City Center
12:24PM 37.7053 -93.2453 315° West 376 433 34,000 -120 Level Kansas City Center
12:25PM 37.7806 -93.3381 316° Northwest 375 432 33,800 -600 Descending Kansas City Center
12:26PM 37.8550 -93.4314 315° West 375 432 32,800 -1,260 Descending Kansas City Center
12:27PM 37.9317 -93.5236 317° Northwest 377 434 31,300 -1,500 Descending Kansas City Center
12:28PM 38.0050 -93.6167 315° West 373 429 29,700 -1,560 Descending Kansas City Center
12:29PM 38.0833 -93.7133 316° Northwest 385 443 28,100 -1,620 Descending Kansas City Center
12:30PM 38.1811 -93.7931 327° Northwest 421 484 26,500 -1,620 Descending Kansas City Center
12:31PM 38.2903 -93.8561 336° Northwest 431 496 24,900 -1,620 Descending Kansas City Center
12:32PM 38.4006 -93.9197 336° Northwest 432 497 23,200 -1,860 Descending Kansas City Center
12:33PM 38.5258 -93.9917 336° Northwest 432 497 21,200 -1,800 Descending Kansas City Center
12:34PM 38.6253 -94.0472 336° Northwest 411 473 19,600 -1,500 Descending Kansas City Center
12:35PM 38.7283 -94.1283 328° Northwest 387 445 18,100 -1,620 Descending Kansas City Center
12:37PM 38.8003 -94.2083 319° Northwest 362 417 16,300 -2,400 Descending Kansas City Center
12:38PM 38.9011 -94.2817 330° Northwest 384 442 13,300 -2,640 Descending Kansas City Center
12:39PM 38.9928 -94.3236 340° North 371 427 11,000 -2,220 Descending Kansas City Center
12:40PM 39.0925 -94.3686 341° North 342 394 8,800 -2,040 Descending Kansas City Center
12:41PM 39.1711 -94.4092 338° Northwest 323 372 6,900 -2,040 Descending Kansas City Center
12:42PM 39.2453 -94.4425 341° North 300 345 4,700 -1,920 Descending Kansas City Center
12:43PM 39.3153 -94.4931 331° Northwest 257 296 3,000 -840 Descending Kansas City Center
12:44PM 39.2928 -94.5436 240° Southwest 176 203 3,000  Level Kansas City Center
12:45PM 39.2444 -94.5592 194° South 156 180 3,000 -300 Level Kansas City Center
12:46PM 39.2125 -94.5669 191° South 123 142 2,400 -660 Descending Kansas City Center
12:47PM 39.1783 -94.5778 194° South 113 130 1,700 -540 Descending Kansas City Center
12:48PM 39.1478 -94.5856 191° South 114 131 1,300 -420 Descending Kansas City Center